sensor_id;sensor_type;location;lat;lon;timestamp;pressure;altitude;pressure_sealevel;temperature;humidity
76858;BME280;65830;0.000;0.000;2023-08-08T00:00:49;99263.25;;;22.99;47.89
76858;BME280;65830;0.000;0.000;2023-08-08T00:03:14;99273.81;;;23.01;47.93
76858;BME280;65830;0.000;0.000;2023-08-08T00:05:40;99274.75;;;22.95;47.97
76858;BME280;65830;0.000;0.000;2023-08-08T00:08:05;99267.09;;;22.92;48.05
76858;BME280;65830;0.000;0.000;2023-08-08T00:10:31;99270.41;;;22.94;48.06
76858;BME280;65830;0.000;0.000;2023-08-08T00:12:57;99265.38;;;22.97;47.98
76858;BME280;65830;0.000;0.000;2023-08-08T00:15:22;99271.06;;;22.89;48.14
76858;BME280;65830;0.000;0.000;2023-08-08T00:17:48;99276.78;;;22.99;48.37
76858;BME280;65830;0.000;0.000;2023-08-08T00:20:13;99259.47;;;23.00;48.37
76858;BME280;65830;0.000;0.000;2023-08-08T00:22:39;99274.66;;;23.02;48.42
76858;BME280;65830;0.000;0.000;2023-08-08T00:25:04;99267.31;;;22.90;48.80
76858;BME280;65830;0.000;0.000;2023-08-08T00:27:30;99276.78;;;22.99;48.66
76858;BME280;65830;0.000;0.000;2023-08-08T00:29:55;99269.81;;;22.92;48.77
76858;BME280;65830;0.000;0.000;2023-08-08T00:32:22;99285.56;;;22.95;48.75
76858;BME280;65830;0.000;0.000;2023-08-08T00:34:47;99280.53;;;22.98;49.03
76858;BME280;65830;0.000;0.000;2023-08-08T00:37:13;99283.66;;;22.84;49.81
76858;BME280;65830;0.000;0.000;2023-08-08T00:39:38;99289.91;;;22.66;50.78
76858;BME280;65830;0.000;0.000;2023-08-08T00:42:07;99284.25;;;22.67;50.98
76858;BME280;65830;0.000;0.000;2023-08-08T00:44:33;99292.16;;;22.69;50.88
76858;BME280;65830;0.000;0.000;2023-08-08T00:46:58;99288.47;;;22.63;51.09
76858;BME280;65830;0.000;0.000;2023-08-08T00:49:24;99278.56;;;22.57;51.45
76858;BME280;65830;0.000;0.000;2023-08-08T00:51:49;99283.31;;;22.62;51.37
76858;BME280;65830;0.000;0.000;2023-08-08T00:54:16;99279.44;;;22.69;51.11
76858;BME280;65830;0.000;0.000;2023-08-08T00:56:41;99279.69;;;22.68;51.27
76858;BME280;65830;0.000;0.000;2023-08-08T00:59:07;99283.66;;;22.65;51.59
76858;BME280;65830;0.000;0.000;2023-08-08T01:01:34;99295.16;;;22.60;51.73
76858;BME280;65830;0.000;0.000;2023-08-08T01:03:59;99296.06;;;22.54;52.28
76858;BME280;65830;0.000;0.000;2023-08-08T01:06:29;99292.81;;;22.46;52.30
76858;BME280;65830;0.000;0.000;2023-08-08T01:08:58;99291.63;;;22.41;52.78
76858;BME280;65830;0.000;0.000;2023-08-08T01:11:26;99291.41;;;22.43;52.81
76858;BME280;65830;0.000;0.000;2023-08-08T01:13:53;99298.41;;;22.32;53.02
76858;BME280;65830;0.000;0.000;2023-08-08T01:16:20;99292.63;;;22.29;53.11
76858;BME280;65830;0.000;0.000;2023-08-08T01:18:46;99305.53;;;22.27;53.14
76858;BME280;65830;0.000;0.000;2023-08-08T01:21:12;99302.97;;;22.32;53.20
76858;BME280;65830;0.000;0.000;2023-08-08T01:23:52;99310.38;;;22.18;53.42
76858;BME280;65830;0.000;0.000;2023-08-08T01:26:18;99313.50;;;22.15;53.66
76858;BME280;65830;0.000;0.000;2023-08-08T01:28:44;99317.63;;;22.24;53.17
76858;BME280;65830;0.000;0.000;2023-08-08T01:31:10;99324.75;;;22.12;52.79
76858;BME280;65830;0.000;0.000;2023-08-08T01:33:36;99321.44;;;22.10;53.21
76858;BME280;65830;0.000;0.000;2023-08-08T01:36:07;99317.16;;;22.02;52.55
76858;BME280;65830;0.000;0.000;2023-08-08T01:38:36;99327.47;;;21.87;52.97
76858;BME280;65830;0.000;0.000;2023-08-08T01:41:04;99327.53;;;21.80;52.99
76858;BME280;65830;0.000;0.000;2023-08-08T01:43:30;99332.91;;;21.80;53.02
76858;BME280;65830;0.000;0.000;2023-08-08T01:45:58;99336.09;;;21.70;53.29
76858;BME280;65830;0.000;0.000;2023-08-08T01:48:24;99341.34;;;21.65;53.49
76858;BME280;65830;0.000;0.000;2023-08-08T01:50:50;99341.16;;;21.60;53.71
76858;BME280;65830;0.000;0.000;2023-08-08T01:53:16;99339.09;;;21.62;53.96
76858;BME280;65830;0.000;0.000;2023-08-08T01:55:42;99338.94;;;21.57;53.99
76858;BME280;65830;0.000;0.000;2023-08-08T01:58:08;99339.34;;;21.54;53.98
76858;BME280;65830;0.000;0.000;2023-08-08T02:00:33;99337.56;;;21.41;54.50
76858;BME280;65830;0.000;0.000;2023-08-08T02:02:59;99359.16;;;21.34;54.80
76858;BME280;65830;0.000;0.000;2023-08-08T02:05:24;99344.25;;;21.32;55.04
76858;BME280;65830;0.000;0.000;2023-08-08T02:07:50;99352.13;;;21.33;55.01
76858;BME280;65830;0.000;0.000;2023-08-08T02:10:15;99350.72;;;21.24;54.96
76858;BME280;65830;0.000;0.000;2023-08-08T02:12:41;99363.03;;;21.13;55.01
76858;BME280;65830;0.000;0.000;2023-08-08T02:15:06;99354.53;;;21.10;55.28
76858;BME280;65830;0.000;0.000;2023-08-08T02:17:32;99363.72;;;20.95;55.63
76858;BME280;65830;0.000;0.000;2023-08-08T02:19:57;99368.72;;;20.92;55.89
76858;BME280;65830;0.000;0.000;2023-08-08T02:22:23;99368.09;;;20.90;55.94
76858;BME280;65830;0.000;0.000;2023-08-08T02:24:48;99368.69;;;20.98;55.95
76858;BME280;65830;0.000;0.000;2023-08-08T02:27:14;99377.00;;;20.90;56.00
76858;BME280;65830;0.000;0.000;2023-08-08T02:29:39;99384.91;;;20.85;56.34
76858;BME280;65830;0.000;0.000;2023-08-08T02:32:05;99377.69;;;20.72;56.75
76858;BME280;65830;0.000;0.000;2023-08-08T02:34:31;99383.69;;;20.74;56.47
76858;BME280;65830;0.000;0.000;2023-08-08T02:36:56;99372.50;;;20.71;56.80
76858;BME280;65830;0.000;0.000;2023-08-08T02:39:22;99377.50;;;20.54;57.34
76858;BME280;65830;0.000;0.000;2023-08-08T02:41:47;99387.44;;;20.53;57.56
76858;BME280;65830;0.000;0.000;2023-08-08T02:44:13;99389.31;;;20.53;57.78
76858;BME280;65830;0.000;0.000;2023-08-08T02:46:39;99398.22;;;20.53;57.82
76858;BME280;65830;0.000;0.000;2023-08-08T02:49:05;99394.91;;;20.51;58.17
76858;BME280;65830;0.000;0.000;2023-08-08T02:51:31;99402.84;;;20.26;58.97
76858;BME280;65830;0.000;0.000;2023-08-08T02:53:56;99400.97;;;20.20;59.29
76858;BME280;65830;0.000;0.000;2023-08-08T02:56:22;99410.28;;;20.31;59.21
76858;BME280;65830;0.000;0.000;2023-08-08T02:58:49;99408.63;;;20.23;59.41
76858;BME280;65830;0.000;0.000;2023-08-08T03:01:15;99406.97;;;20.29;59.31
76858;BME280;65830;0.000;0.000;2023-08-08T03:03:42;99417.97;;;20.34;59.41
76858;BME280;65830;0.000;0.000;2023-08-08T03:06:08;99407.56;;;20.37;59.35
76858;BME280;65830;0.000;0.000;2023-08-08T03:08:33;99412.34;;;20.35;59.19
76858;BME280;65830;0.000;0.000;2023-08-08T03:10:59;99421.69;;;20.33;59.58
76858;BME280;65830;0.000;0.000;2023-08-08T03:13:26;99446.75;;;20.13;60.54
76858;BME280;65830;0.000;0.000;2023-08-08T03:15:52;99432.63;;;19.98;61.41
76858;BME280;65830;0.000;0.000;2023-08-08T03:18:18;99437.44;;;20.02;61.54
76858;BME280;65830;0.000;0.000;2023-08-08T03:20:44;99437.22;;;19.97;61.57
76858;BME280;65830;0.000;0.000;2023-08-08T03:23:10;99441.34;;;19.93;61.88
76858;BME280;65830;0.000;0.000;2023-08-08T03:25:37;99454.00;;;19.99;61.71
76858;BME280;65830;0.000;0.000;2023-08-08T03:28:03;99453.56;;;19.96;61.94
76858;BME280;65830;0.000;0.000;2023-08-08T03:30:29;99464.97;;;19.98;62.07
76858;BME280;65830;0.000;0.000;2023-08-08T03:32:55;99476.97;;;19.89;62.40
76858;BME280;65830;0.000;0.000;2023-08-08T03:35:20;99484.19;;;19.75;62.87
76858;BME280;65830;0.000;0.000;2023-08-08T03:37:46;99486.91;;;19.88;62.56
76858;BME280;65830;0.000;0.000;2023-08-08T03:40:12;99490.19;;;19.83;62.80
76858;BME280;65830;0.000;0.000;2023-08-08T03:42:40;99493.28;;;19.74;63.21
76858;BME280;65830;0.000;0.000;2023-08-08T03:45:07;99497.97;;;19.58;64.28
76858;BME280;65830;0.000;0.000;2023-08-08T03:47:32;99502.69;;;19.43;65.77
76858;BME280;65830;0.000;0.000;2023-08-08T03:49:58;99510.50;;;19.38;66.84
76858;BME280;65830;0.000;0.000;2023-08-08T03:52:24;99509.50;;;19.39;67.38
76858;BME280;65830;0.000;0.000;2023-08-08T03:54:51;99520.44;;;19.37;67.79
76858;BME280;65830;0.000;0.000;2023-08-08T03:57:16;99530.16;;;19.38;68.02
76858;BME280;65830;0.000;0.000;2023-08-08T03:59:42;99528.91;;;19.34;67.93
76858;BME280;65830;0.000;0.000;2023-08-08T04:02:07;99539.94;;;19.46;67.58
76858;BME280;65830;0.000;0.000;2023-08-08T04:04:33;99558.75;;;19.39;67.56
76858;BME280;65830;0.000;0.000;2023-08-08T04:06:59;99546.63;;;19.22;68.04
76858;BME280;65830;0.000;0.000;2023-08-08T04:09:24;99543.75;;;19.23;68.00
76858;BME280;65830;0.000;0.000;2023-08-08T04:11:50;99553.22;;;19.13;68.15
76858;BME280;65830;0.000;0.000;2023-08-08T04:14:16;99559.06;;;19.23;67.47
76858;BME280;65830;0.000;0.000;2023-08-08T04:16:41;99572.22;;;19.11;67.36
76858;BME280;65830;0.000;0.000;2023-08-08T04:19:07;99584.75;;;18.97;68.50
76858;BME280;65830;0.000;0.000;2023-08-08T04:21:32;99568.81;;;18.96;69.55
76858;BME280;65830;0.000;0.000;2023-08-08T04:23:58;99588.78;;;18.65;72.39
76858;BME280;65830;0.000;0.000;2023-08-08T04:26:24;99591.50;;;18.07;78.04
76858;BME280;65830;0.000;0.000;2023-08-08T04:28:50;99601.91;;;17.95;78.62
76858;BME280;65830;0.000;0.000;2023-08-08T04:31:15;99604.41;;;17.82;79.25
76858;BME280;65830;0.000;0.000;2023-08-08T04:33:41;99579.78;;;17.78;80.44
76858;BME280;65830;0.000;0.000;2023-08-08T04:36:06;99597.38;;;17.96;80.24
76858;BME280;65830;0.000;0.000;2023-08-08T04:38:32;99599.72;;;17.84;80.41
76858;BME280;65830;0.000;0.000;2023-08-08T04:40:57;99599.50;;;17.85;80.52
76858;BME280;65830;0.000;0.000;2023-08-08T04:43:24;99600.06;;;17.96;80.82
76858;BME280;65830;0.000;0.000;2023-08-08T04:45:50;99589.41;;;18.02;80.58
76858;BME280;65830;0.000;0.000;2023-08-08T04:48:16;99595.88;;;17.93;80.62
76858;BME280;65830;0.000;0.000;2023-08-08T04:50:41;99607.16;;;18.03;81.24
76858;BME280;65830;0.000;0.000;2023-08-08T04:53:07;99628.72;;;18.10;81.24
76858;BME280;65830;0.000;0.000;2023-08-08T04:55:32;99625.69;;;17.98;81.60
76858;BME280;65830;0.000;0.000;2023-08-08T04:57:58;99641.50;;;17.78;81.11
76858;BME280;65830;0.000;0.000;2023-08-08T05:00:25;99642.34;;;17.79;81.63
76858;BME280;65830;0.000;0.000;2023-08-08T05:02:51;99652.91;;;17.80;81.68
76858;BME280;65830;0.000;0.000;2023-08-08T05:05:16;99654.88;;;17.86;80.68
76858;BME280;65830;0.000;0.000;2023-08-08T05:07:42;99657.91;;;17.83;81.04
76858;BME280;65830;0.000;0.000;2023-08-08T05:10:07;99662.59;;;17.81;81.24
76858;BME280;65830;0.000;0.000;2023-08-08T05:12:33;99666.59;;;17.85;81.18
76858;BME280;65830;0.000;0.000;2023-08-08T05:14:58;99678.69;;;17.81;81.46
76858;BME280;65830;0.000;0.000;2023-08-08T05:17:24;99684.09;;;17.96;81.02
76858;BME280;65830;0.000;0.000;2023-08-08T05:19:49;99691.22;;;18.04;80.51
76858;BME280;65830;0.000;0.000;2023-08-08T05:22:15;99695.22;;;18.08;79.86
76858;BME280;65830;0.000;0.000;2023-08-08T05:24:43;99701.69;;;18.14;79.40
76858;BME280;65830;0.000;0.000;2023-08-08T05:27:16;99696.84;;;18.09;79.41
76858;BME280;65830;0.000;0.000;2023-08-08T05:29:42;99719.38;;;18.08;78.37
76858;BME280;65830;0.000;0.000;2023-08-08T05:32:07;99707.25;;;18.12;78.96
76858;BME280;65830;0.000;0.000;2023-08-08T05:34:33;99718.34;;;18.24;79.20
76858;BME280;65830;0.000;0.000;2023-08-08T05:36:59;99723.88;;;18.22;78.30
76858;BME280;65830;0.000;0.000;2023-08-08T05:39:24;99725.47;;;18.17;78.60
76858;BME280;65830;0.000;0.000;2023-08-08T05:41:50;99730.28;;;18.06;77.73
76858;BME280;65830;0.000;0.000;2023-08-08T05:44:15;99729.81;;;18.03;78.51
76858;BME280;65830;0.000;0.000;2023-08-08T05:46:41;99741.03;;;18.06;78.31
76858;BME280;65830;0.000;0.000;2023-08-08T05:49:06;99743.53;;;18.08;78.19
76858;BME280;65830;0.000;0.000;2023-08-08T05:51:32;99745.63;;;17.83;78.91
76858;BME280;65830;0.000;0.000;2023-08-08T05:53:57;99750.84;;;17.84;78.38
76858;BME280;65830;0.000;0.000;2023-08-08T05:56:23;99746.47;;;17.83;77.78
76858;BME280;65830;0.000;0.000;2023-08-08T05:58:48;99761.41;;;17.86;77.85
76858;BME280;65830;0.000;0.000;2023-08-08T06:01:14;99764.09;;;17.86;77.80
76858;BME280;65830;0.000;0.000;2023-08-08T06:03:39;99761.34;;;17.71;78.15
76858;BME280;65830;0.000;0.000;2023-08-08T06:06:05;99763.09;;;17.79;78.62
76858;BME280;65830;0.000;0.000;2023-08-08T06:08:31;99756.41;;;17.98;79.20
76858;BME280;65830;0.000;0.000;2023-08-08T06:10:57;99768.50;;;17.94;78.64
76858;BME280;65830;0.000;0.000;2023-08-08T06:13:22;99754.88;;;17.80;77.88
76858;BME280;65830;0.000;0.000;2023-08-08T06:15:48;99751.53;;;17.78;77.16
76858;BME280;65830;0.000;0.000;2023-08-08T06:18:14;99753.13;;;17.88;76.81
76858;BME280;65830;0.000;0.000;2023-08-08T06:20:40;99760.91;;;17.82;77.33
76858;BME280;65830;0.000;0.000;2023-08-08T06:23:06;99747.72;;;17.96;76.71
76858;BME280;65830;0.000;0.000;2023-08-08T06:25:31;99756.97;;;18.08;77.00
76858;BME280;65830;0.000;0.000;2023-08-08T06:27:57;99753.53;;;18.14;76.07
76858;BME280;65830;0.000;0.000;2023-08-08T06:30:22;99763.88;;;18.17;75.55
76858;BME280;65830;0.000;0.000;2023-08-08T06:32:48;99760.38;;;18.17;76.34
76858;BME280;65830;0.000;0.000;2023-08-08T06:35:13;99764.00;;;18.24;74.82
76858;BME280;65830;0.000;0.000;2023-08-08T06:37:42;99761.78;;;18.28;75.88
76858;BME280;65830;0.000;0.000;2023-08-08T06:40:08;99764.00;;;18.24;74.91
76858;BME280;65830;0.000;0.000;2023-08-08T06:42:34;99750.28;;;18.34;74.69
76858;BME280;65830;0.000;0.000;2023-08-08T06:45:00;99754.25;;;18.38;75.18
76858;BME280;65830;0.000;0.000;2023-08-08T06:47:26;99750.81;;;18.29;74.07
76858;BME280;65830;0.000;0.000;2023-08-08T06:49:51;99747.66;;;18.40;75.29
76858;BME280;65830;0.000;0.000;2023-08-08T06:52:17;99751.66;;;18.44;74.00
76858;BME280;65830;0.000;0.000;2023-08-08T06:54:42;99755.72;;;18.55;73.31
76858;BME280;65830;0.000;0.000;2023-08-08T06:57:08;99750.88;;;18.65;72.86
76858;BME280;65830;0.000;0.000;2023-08-08T06:59:33;99748.25;;;18.87;71.14
76858;BME280;65830;0.000;0.000;2023-08-08T07:02:02;99754.38;;;19.02;72.25
76858;BME280;65830;0.000;0.000;2023-08-08T07:04:27;99760.94;;;19.15;69.56
76858;BME280;65830;0.000;0.000;2023-08-08T07:06:53;99750.50;;;19.05;70.19
76858;BME280;65830;0.000;0.000;2023-08-08T07:09:19;99758.56;;;19.05;69.43
76858;BME280;65830;0.000;0.000;2023-08-08T07:11:44;99760.22;;;19.06;68.86
76858;BME280;65830;0.000;0.000;2023-08-08T07:14:10;99749.78;;;19.18;69.40
76858;BME280;65830;0.000;0.000;2023-08-08T07:16:35;99758.31;;;19.21;67.36
76858;BME280;65830;0.000;0.000;2023-08-08T07:19:01;99757.78;;;19.33;68.28
76858;BME280;65830;0.000;0.000;2023-08-08T07:21:26;99766.28;;;19.36;66.97
76858;BME280;65830;0.000;0.000;2023-08-08T07:23:52;99752.13;;;19.49;65.76
76858;BME280;65830;0.000;0.000;2023-08-08T07:26:17;99756.09;;;19.53;66.27
76858;BME280;65830;0.000;0.000;2023-08-08T07:28:43;99759.56;;;19.47;64.45
76858;BME280;65830;0.000;0.000;2023-08-08T07:31:08;99767.94;;;19.59;65.58
76858;BME280;65830;0.000;0.000;2023-08-08T07:33:34;99767.53;;;19.62;65.00
76858;BME280;65830;0.000;0.000;2023-08-08T07:35:59;99768.09;;;19.72;65.52
76858;BME280;65830;0.000;0.000;2023-08-08T07:38:25;99772.28;;;19.81;64.27
76858;BME280;65830;0.000;0.000;2023-08-08T07:40:50;99771.81;;;19.78;64.04
76858;BME280;65830;0.000;0.000;2023-08-08T07:43:16;99767.66;;;19.75;64.96
76858;BME280;65830;0.000;0.000;2023-08-08T07:45:42;99771.78;;;19.71;64.88
76858;BME280;65830;0.000;0.000;2023-08-08T07:48:08;99776.00;;;19.80;65.14
76858;BME280;65830;0.000;0.000;2023-08-08T07:50:33;99784.66;;;19.76;63.57
76858;BME280;65830;0.000;0.000;2023-08-08T07:52:59;99774.94;;;19.75;62.91
76858;BME280;65830;0.000;0.000;2023-08-08T07:55:24;99784.88;;;19.74;63.11
76858;BME280;65830;0.000;0.000;2023-08-08T07:57:50;99787.41;;;19.82;63.75
76858;BME280;65830;0.000;0.000;2023-08-08T08:00:15;99784.31;;;19.86;63.18
76858;BME280;65830;0.000;0.000;2023-08-08T08:02:44;99787.91;;;19.99;63.69
76858;BME280;65830;0.000;0.000;2023-08-08T08:05:10;99781.19;;;20.10;63.05
76858;BME280;65830;0.000;0.000;2023-08-08T08:07:35;99786.78;;;20.15;62.25
76858;BME280;65830;0.000;0.000;2023-08-08T08:10:02;99784.50;;;20.12;60.99
76858;BME280;65830;0.000;0.000;2023-08-08T08:12:29;99782.00;;;20.11;61.90
76858;BME280;65830;0.000;0.000;2023-08-08T08:14:55;99794.56;;;20.03;59.99
76858;BME280;65830;0.000;0.000;2023-08-08T08:17:20;99785.56;;;19.90;60.34
76858;BME280;65830;0.000;0.000;2023-08-08T08:19:46;99784.41;;;19.99;60.35
76858;BME280;65830;0.000;0.000;2023-08-08T08:22:11;99790.47;;;20.08;60.19
76858;BME280;65830;0.000;0.000;2023-08-08T08:24:42;99781.19;;;20.10;59.32
76858;BME280;65830;0.000;0.000;2023-08-08T08:27:07;99785.50;;;20.11;60.39
76858;BME280;65830;0.000;0.000;2023-08-08T08:29:33;99782.66;;;20.19;59.94
76858;BME280;65830;0.000;0.000;2023-08-08T08:31:58;99781.38;;;20.15;58.83
76858;BME280;65830;0.000;0.000;2023-08-08T08:34:24;99782.66;;;20.19;59.21
76858;BME280;65830;0.000;0.000;2023-08-08T08:36:49;99771.72;;;20.28;59.43
76858;BME280;65830;0.000;0.000;2023-08-08T08:39:15;99776.09;;;20.29;58.31
76858;BME280;65830;0.000;0.000;2023-08-08T08:41:40;99774.22;;;20.29;57.72
76858;BME280;65830;0.000;0.000;2023-08-08T08:44:06;99776.75;;;20.37;57.63
76858;BME280;65830;0.000;0.000;2023-08-08T08:46:32;99773.84;;;20.39;58.07
76858;BME280;65830;0.000;0.000;2023-08-08T08:49:00;99772.25;;;20.51;57.10
76858;BME280;65830;0.000;0.000;2023-08-08T08:51:28;99775.84;;;20.65;57.29
76858;BME280;65830;0.000;0.000;2023-08-08T08:53:53;99770.69;;;20.70;56.16
76858;BME280;65830;0.000;0.000;2023-08-08T08:56:19;99766.56;;;20.74;55.80
76858;BME280;65830;0.000;0.000;2023-08-08T08:58:45;99763.09;;;21.00;56.26
76858;BME280;65830;0.000;0.000;2023-08-08T09:01:11;99760.63;;;21.06;54.71
76858;BME280;65830;0.000;0.000;2023-08-08T09:03:37;99758.78;;;21.19;55.06
76858;BME280;65830;0.000;0.000;2023-08-08T09:06:03;99765.44;;;21.37;54.29
76858;BME280;65830;0.000;0.000;2023-08-08T09:08:29;99757.13;;;21.38;52.93
76858;BME280;65830;0.000;0.000;2023-08-08T09:10:55;99762.94;;;21.42;52.58
76858;BME280;65830;0.000;0.000;2023-08-08T09:13:22;99762.31;;;21.33;52.68
76858;BME280;65830;0.000;0.000;2023-08-08T09:15:48;99743.47;;;21.47;53.23
76858;BME280;65830;0.000;0.000;2023-08-08T09:18:14;99750.53;;;21.61;53.02
76858;BME280;65830;0.000;0.000;2023-08-08T09:20:40;99748.22;;;21.85;51.75
76858;BME280;65830;0.000;0.000;2023-08-08T09:23:05;99749.22;;;21.97;48.94
76858;BME280;65830;0.000;0.000;2023-08-08T09:25:31;99741.72;;;21.99;48.28
76858;BME280;65830;0.000;0.000;2023-08-08T09:27:56;99728.44;;;22.04;48.35
76858;BME280;65830;0.000;0.000;2023-08-08T09:30:22;99726.31;;;22.26;48.39
76858;BME280;65830;0.000;0.000;2023-08-08T09:32:48;99736.22;;;22.39;47.55
76858;BME280;65830;0.000;0.000;2023-08-08T09:35:14;99731.88;;;22.38;47.10
76858;BME280;65830;0.000;0.000;2023-08-08T09:37:40;99742.78;;;22.63;48.61
76858;BME280;65830;0.000;0.000;2023-08-08T09:40:06;99728.78;;;22.73;47.56
76858;BME280;65830;0.000;0.000;2023-08-08T09:42:33;99726.53;;;22.70;48.71
76858;BME280;65830;0.000;0.000;2023-08-08T09:44:59;99727.03;;;22.85;45.28
76858;BME280;65830;0.000;0.000;2023-08-08T09:47:25;99724.09;;;22.93;46.52
76858;BME280;65830;0.000;0.000;2023-08-08T09:49:57;99724.19;;;23.12;45.54
76858;BME280;65830;0.000;0.000;2023-08-08T09:52:24;99718.56;;;23.13;45.84
76858;BME280;65830;0.000;0.000;2023-08-08T09:54:50;99720.78;;;23.23;45.23
76858;BME280;65830;0.000;0.000;2023-08-08T09:57:16;99722.63;;;22.97;44.72
76858;BME280;65830;0.000;0.000;2023-08-08T09:59:41;99710.19;;;22.83;44.98
76858;BME280;65830;0.000;0.000;2023-08-08T10:02:08;99712.44;;;22.93;43.77
76858;BME280;65830;0.000;0.000;2023-08-08T10:04:38;99716.75;;;23.00;42.77
76858;BME280;65830;0.000;0.000;2023-08-08T10:07:04;99722.53;;;23.11;42.88
76858;BME280;65830;0.000;0.000;2023-08-08T10:09:29;99716.59;;;23.27;42.66
76858;BME280;65830;0.000;0.000;2023-08-08T10:11:55;99716.13;;;23.30;42.45
76858;BME280;65830;0.000;0.000;2023-08-08T10:14:21;99717.31;;;23.41;42.04
76858;BME280;65830;0.000;0.000;2023-08-08T10:16:55;99715.84;;;23.64;40.76
76858;BME280;65830;0.000;0.000;2023-08-08T10:19:21;99717.34;;;23.59;40.50
76858;BME280;65830;0.000;0.000;2023-08-08T10:21:47;99725.78;;;23.70;40.25
76858;BME280;65830;0.000;0.000;2023-08-08T10:24:13;99714.47;;;23.54;39.49
76858;BME280;65830;0.000;0.000;2023-08-08T10:26:57;99704.50;;;23.73;39.44
76858;BME280;65830;0.000;0.000;2023-08-08T10:29:24;99711.53;;;23.99;38.64
76858;BME280;65830;0.000;0.000;2023-08-08T10:31:57;99719.00;;;24.04;38.26
76858;BME280;65830;0.000;0.000;2023-08-08T10:34:26;99703.50;;;24.11;38.04
76858;BME280;65830;0.000;0.000;2023-08-08T10:36:52;99705.66;;;24.21;38.29
76858;BME280;65830;0.000;0.000;2023-08-08T10:39:18;99702.56;;;24.36;38.81
76858;BME280;65830;0.000;0.000;2023-08-08T10:41:44;99701.94;;;24.34;37.22
76858;BME280;65830;0.000;0.000;2023-08-08T10:44:10;99700.47;;;24.38;37.63
76858;BME280;65830;0.000;0.000;2023-08-08T10:46:39;99694.81;;;24.58;37.22
76858;BME280;65830;0.000;0.000;2023-08-08T10:49:05;99703.81;;;24.70;37.91
76858;BME280;65830;0.000;0.000;2023-08-08T10:54:06;99699.31;;;24.64;37.04
76858;BME280;65830;0.000;0.000;2023-08-08T10:56:31;99699.47;;;24.81;39.42
76858;BME280;65830;0.000;0.000;2023-08-08T10:58:57;99697.94;;;24.85;37.52
76858;BME280;65830;0.000;0.000;2023-08-08T11:01:25;99691.47;;;24.86;38.53
76858;BME280;65830;0.000;0.000;2023-08-08T11:03:51;99690.41;;;24.87;39.62
76858;BME280;65830;0.000;0.000;2023-08-08T11:06:17;99681.06;;;24.83;38.37
76858;BME280;65830;0.000;0.000;2023-08-08T11:08:44;99693.84;;;24.94;38.31
76858;BME280;65830;0.000;0.000;2023-08-08T11:11:09;99678.63;;;25.05;37.51
76858;BME280;65830;0.000;0.000;2023-08-08T11:13:35;99681.47;;;25.10;37.35
76858;BME280;65830;0.000;0.000;2023-08-08T11:16:00;99678.41;;;25.07;36.89
76858;BME280;65830;0.000;0.000;2023-08-08T11:18:29;99680.66;;;25.10;36.92
76858;BME280;65830;0.000;0.000;2023-08-08T11:20:55;99678.59;;;25.24;36.38
76858;BME280;65830;0.000;0.000;2023-08-08T11:23:20;99674.81;;;25.36;36.71
76858;BME280;65830;0.000;0.000;2023-08-08T11:25:47;99670.09;;;25.44;36.96
76858;BME280;65830;0.000;0.000;2023-08-08T11:28:13;99672.09;;;25.48;35.50
76858;BME280;65830;0.000;0.000;2023-08-08T11:30:40;99678.47;;;25.66;34.67
76858;BME280;65830;0.000;0.000;2023-08-08T11:33:06;99679.88;;;25.80;32.98
76858;BME280;65830;0.000;0.000;2023-08-08T11:35:32;99663.56;;;25.68;32.81
76858;BME280;65830;0.000;0.000;2023-08-08T11:37:59;99662.50;;;25.81;32.60
76858;BME280;65830;0.000;0.000;2023-08-08T11:40:26;99657.66;;;25.95;35.05
76858;BME280;65830;0.000;0.000;2023-08-08T11:42:52;99658.34;;;26.02;36.00
76858;BME280;65830;0.000;0.000;2023-08-08T11:45:18;99657.41;;;26.37;36.26
76858;BME280;65830;0.000;0.000;2023-08-08T11:47:47;99648.78;;;26.69;32.77
76858;BME280;65830;0.000;0.000;2023-08-08T11:50:13;99656.97;;;26.86;34.29
76858;BME280;65830;0.000;0.000;2023-08-08T11:52:42;99651.13;;;26.94;33.61
76858;BME280;65830;0.000;0.000;2023-08-08T11:55:08;99644.34;;;26.97;33.46
76858;BME280;65830;0.000;0.000;2023-08-08T11:57:37;99638.28;;;27.11;32.93
76858;BME280;65830;0.000;0.000;2023-08-08T12:00:07;99649.59;;;27.03;33.60
76858;BME280;65830;0.000;0.000;2023-08-08T12:02:39;99640.88;;;27.01;33.67
76858;BME280;65830;0.000;0.000;2023-08-08T12:05:05;99641.72;;;27.36;33.17
76858;BME280;65830;0.000;0.000;2023-08-08T12:07:32;99635.84;;;27.44;32.06
76858;BME280;65830;0.000;0.000;2023-08-08T12:09:58;99631.03;;;27.90;30.94
76858;BME280;65830;0.000;0.000;2023-08-08T12:12:25;99622.00;;;28.11;29.82
76858;BME280;65830;0.000;0.000;2023-08-08T12:14:51;99620.06;;;28.34;31.68
76858;BME280;65830;0.000;0.000;2023-08-08T12:17:18;99628.56;;;28.92;28.24
76858;BME280;65830;0.000;0.000;2023-08-08T12:19:47;99623.72;;;29.04;28.43
76858;BME280;65830;0.000;0.000;2023-08-08T12:22:13;99615.56;;;29.09;27.93
76858;BME280;65830;0.000;0.000;2023-08-08T12:24:38;99620.56;;;29.18;28.43
76858;BME280;65830;0.000;0.000;2023-08-08T12:27:04;99604.72;;;28.82;29.49
76858;BME280;65830;0.000;0.000;2023-08-08T12:29:29;99609.63;;;29.18;31.09
76858;BME280;65830;0.000;0.000;2023-08-08T12:31:56;99615.25;;;29.43;30.81
76858;BME280;65830;0.000;0.000;2023-08-08T12:34:21;99614.84;;;29.19;29.58
76858;BME280;65830;0.000;0.000;2023-08-08T12:36:47;99607.75;;;29.18;31.60
76858;BME280;65830;0.000;0.000;2023-08-08T12:39:13;99610.28;;;29.30;31.54
76858;BME280;65830;0.000;0.000;2023-08-08T12:41:39;99609.28;;;29.09;31.56
76858;BME280;65830;0.000;0.000;2023-08-08T12:44:04;99608.91;;;28.95;31.33
76858;BME280;65830;0.000;0.000;2023-08-08T12:46:30;99608.09;;;28.62;29.92
76858;BME280;65830;0.000;0.000;2023-08-08T12:48:56;99603.94;;;28.55;30.60
76858;BME280;65830;0.000;0.000;2023-08-08T12:51:21;99600.50;;;28.69;30.68
76858;BME280;65830;0.000;0.000;2023-08-08T12:53:47;99605.25;;;28.25;29.99
76858;BME280;65830;0.000;0.000;2023-08-08T12:56:12;99593.03;;;27.83;30.32
76858;BME280;65830;0.000;0.000;2023-08-08T12:58:38;99592.78;;;28.07;30.92
76858;BME280;65830;0.000;0.000;2023-08-08T13:01:06;99592.69;;;28.24;30.91
76858;BME280;65830;0.000;0.000;2023-08-08T13:03:31;99600.53;;;27.93;29.80
76858;BME280;65830;0.000;0.000;2023-08-08T13:05:59;99589.97;;;27.80;30.29